KBOW/BOW METAR and TAF weather

Enter ICAO airport designator
Station Type Date Time Source
KBOW METAR 2019/10/16 19:50 UTC NOAA

KBOW 161950Z 25012G20KT 10SM SCT035 31/23 A2987


Station Type Date Time Source
KBOW Decoded METAR 2019/10/16 19:50 UTC NOAA

Bartow Municipal, FL, United States (KBOW) 27-57N 081-47W
Oct 16, 2019 - 03:50 PM EDT / 2019.10.16 1950 UTC
Wind: from the WSW (250 degrees) at 14 MPH (12 KT) gusting to 23 MPH (20 KT):0
Visibility: 10 mile(s):0
Sky conditions: partly cloudy
Temperature: 87 F (31 C)
Heat index: 93.9 F (34.4 C):1
Dew Point: 73 F (23 C)
Relative Humidity: 62%
Pressure (altimeter): 29.87 in. Hg (1011 hPa)
ob: KBOW 161950Z 25012G20KT 10SM SCT035 31/23 A2987
cycle: 20

Station Type Date Time Source
KBOW TAF UTC NOAA

Error!

Example: see airport list